Time;durP1;ratioP1;P1;durP2;ratioP2;P2;SDS_P1;SDS_P2;PMS_P1;PMS_P2;Temp;Humidity;BMP_temperature;BMP_pressure;BME280_temperature;BME280_humidity;BME280_pressure;Samples;Min_cycle;Max_cycle;Signal;HPM_P1;HPM_P2
2022/07/13 00:01:45;;;;;;;2.35;1.70;;;20.10;99.90;;;;;;5055360;28;20045;-64
2022/07/13 00:04:11;;;;;;;2.10;1.58;;;20.20;99.90;;;;;;5054812;28;20059;-64
2022/07/13 00:06:37;;;;;;;1.60;1.50;;;20.10;99.90;;;;;;5055066;28;20049;-64
2022/07/13 00:09:03;;;;;;;2.60;1.48;;;20.10;99.90;;;;;;5055316;28;20056;-64
2022/07/13 00:11:29;;;;;;;2.85;1.70;;;20.10;99.90;;;;;;5055151;28;20061;-65
2022/07/13 00:13:55;;;;;;;2.08;1.73;;;20.20;99.90;;;;;;5055618;28;20056;-64
2022/07/13 00:16:20;;;;;;;1.50;1.40;;;20.10;99.90;;;;;;5054770;28;20094;-64
2022/07/13 00:18:46;;;;;;;1.67;1.58;;;20.10;99.90;;;;;;5055244;28;20044;-65
2022/07/13 00:21:12;;;;;;;2.35;1.50;;;20.10;99.90;;;;;;5054094;28;20523;-65
2022/07/13 00:23:37;;;;;;;1.50;1.40;;;20.10;99.90;;;;;;5053788;28;20071;-65
2022/07/13 00:26:03;;;;;;;2.33;1.77;;;20.10;99.90;;;;;;5054997;28;20049;-65
2022/07/13 00:28:29;;;;;;;2.15;1.60;;;20.10;99.90;;;;;;5054243;28;20062;-65
2022/07/13 00:30:54;;;;;;;2.55;1.52;;;20.10;99.90;;;;;;5054955;28;20041;-65
2022/07/13 00:33:20;;;;;;;1.75;1.65;;;20.10;99.90;;;;;;5059128;28;20516;-65
2022/07/13 00:35:46;;;;;;;1.83;1.58;;;20.00;99.90;;;;;;5073913;28;20484;-65
2022/07/13 00:38:11;;;;;;;2.45;1.75;;;20.00;99.90;;;;;;5074996;28;20442;-66
2022/07/13 00:40:37;;;;;;;1.90;1.80;;;20.00;99.90;;;;;;5074578;28;20043;-65
2022/07/13 00:43:03;;;;;;;3.17;2.05;;;20.00;99.90;;;;;;5073233;28;20095;-65
2022/07/13 00:45:29;;;;;;;2.28;1.77;;;19.90;99.90;;;;;;5074537;28;20044;-64
2022/07/13 00:47:54;;;;;;;3.10;2.17;;;19.90;99.90;;;;;;5074521;28;20407;-65
2022/07/13 00:50:21;;;;;;;2.08;1.63;;;19.90;99.90;;;;;;5074859;28;20044;-65
2022/07/13 00:52:47;;;;;;;3.72;2.10;;;19.90;99.90;;;;;;5074333;28;20049;-64
2022/07/13 00:55:13;;;;;;;2.50;2.10;;;19.90;99.90;;;;;;5074226;28;20087;-66
2022/07/13 00:57:39;;;;;;;2.47;2.28;;;19.90;99.90;;;;;;5074038;28;20049;-65
2022/07/13 01:00:08;;;;;;;2.10;2.00;;;19.90;99.90;;;;;;5074331;28;20055;-65
2022/07/13 01:02:42;;;;;;;2.78;2.13;;;19.90;99.90;;;;;;5074491;28;20532;-65
2022/07/13 01:05:10;;;;;;;2.70;2.50;;;19.90;99.90;;;;;;5071398;28;20044;-65
2022/07/13 01:07:35;;;;;;;2.78;2.30;;;19.90;99.90;;;;;;5073784;28;20563;-66
2022/07/13 01:10:05;;;;;;;3.40;2.00;;;19.90;99.90;;;;;;5073073;28;20135;-64
2022/07/13 01:12:32;;;;;;;3.50;2.17;;;19.90;99.90;;;;;;5074158;28;20090;-65
2022/07/13 01:14:58;;;;;;;3.97;2.63;;;19.90;99.90;;;;;;5074199;28;20048;-65
2022/07/13 01:17:25;;;;;;;3.78;2.85;;;19.90;99.90;;;;;;5073533;28;20040;-65
2022/07/13 01:19:51;;;;;;;3.25;2.95;;;19.90;99.90;;;;;;5072799;28;20057;-65
2022/07/13 01:22:21;;;;;;;3.00;2.80;;;19.90;99.90;;;;;;5074275;28;20400;-65
2022/07/13 01:24:51;;;;;;;3.47;2.90;;;19.90;99.90;;;;;;5073645;28;20555;-65
2022/07/13 01:27:17;;;;;;;3.90;3.50;;;19.90;99.90;;;;;;5073495;28;20483;-65
2022/07/13 01:29:43;;;;;;;3.08;2.88;;;19.90;99.90;;;;;;5073321;28;20426;-65
2022/07/13 01:32:09;;;;;;;4.22;3.67;;;19.90;99.90;;;;;;5073628;28;20045;-65
2022/07/13 01:34:34;;;;;;;3.03;2.83;;;19.90;99.90;;;;;;5047860;28;20501;-65
2022/07/13 01:37:01;;;;;;;3.67;3.33;;;19.90;99.90;;;;;;5053254;28;20045;-65
2022/07/13 01:39:27;;;;;;;3.67;2.92;;;19.90;99.90;;;;;;5053402;28;20060;-65
2022/07/13 01:41:53;;;;;;;4.63;3.50;;;19.90;99.90;;;;;;5053429;28;20048;-65
2022/07/13 01:44:19;;;;;;;4.50;3.33;;;19.90;99.90;;;;;;5052119;28;20053;-65
2022/07/13 01:46:45;;;;;;;5.25;3.50;;;19.90;99.90;;;;;;5053136;28;20053;-65
2022/07/13 01:49:10;;;;;;;3.38;3.08;;;19.90;99.90;;;;;;5053378;28;20041;-66
2022/07/13 01:51:37;;;;;;;4.28;3.28;;;19.90;99.90;;;;;;5053087;28;20146;-65
2022/07/13 01:54:03;;;;;;;4.03;3.10;;;19.90;99.90;;;;;;5052108;28;20047;-65
2022/07/13 01:56:28;;;;;;;3.90;3.10;;;19.90;99.90;;;;;;5051472;28;20060;-65
2022/07/13 01:58:54;;;;;;;3.72;3.42;;;19.90;99.90;;;;;;5051974;28;20049;-65
2022/07/13 02:01:20;;;;;;;5.28;3.60;;;19.80;99.90;;;;;;5052971;28;20056;-65
2022/07/13 02:03:46;;;;;;;4.75;3.67;;;19.80;99.90;;;;;;5053064;28;20481;-65
2022/07/13 02:06:11;;;;;;;3.72;3.42;;;19.80;99.90;;;;;;5066151;28;20047;-65
2022/07/13 02:08:38;;;;;;;3.35;3.05;;;19.80;99.90;;;;;;5072734;28;20040;-65
2022/07/13 02:11:03;;;;;;;3.42;3.08;;;19.80;99.90;;;;;;5073021;28;20111;-66
2022/07/13 02:13:29;;;;;;;4.63;3.58;;;19.80;99.90;;;;;;5072754;28;20488;-65
2022/07/13 02:15:55;;;;;;;3.88;3.58;;;19.80;99.90;;;;;;5072603;28;20048;-65
2022/07/13 02:18:21;;;;;;;5.50;3.78;;;19.80;99.90;;;;;;5072183;28;20044;-65
2022/07/13 02:20:47;;;;;;;4.68;3.97;;;19.80;99.90;;;;;;5072369;28;20095;-65
2022/07/13 02:23:12;;;;;;;4.18;3.78;;;19.80;99.90;;;;;;5055053;28;20052;-65
2022/07/13 02:25:38;;;;;;;4.63;4.15;;;19.80;99.90;;;;;;5072464;28;20048;-65
2022/07/13 02:28:05;;;;;;;4.45;4.05;;;19.90;99.90;;;;;;5072303;28;20040;-65
2022/07/13 02:30:31;;;;;;;6.40;5.38;;;19.80;99.90;;;;;;5071387;28;20094;-65
2022/07/13 02:32:56;;;;;;;5.47;4.90;;;19.80;99.90;;;;;;5072459;28;20080;-65
2022/07/13 02:35:22;;;;;;;6.13;4.53;;;19.80;99.90;;;;;;5069851;28;20474;-65
2022/07/13 02:37:48;;;;;;;5.53;4.55;;;19.80;99.90;;;;;;5072480;28;20048;-65
2022/07/13 02:40:15;;;;;;;5.03;4.45;;;19.80;99.90;;;;;;5072412;28;20048;-65
2022/07/13 02:42:41;;;;;;;5.40;4.90;;;19.80;99.90;;;;;;5072938;28;20052;-65
2022/07/13 02:45:07;;;;;;;5.05;4.65;;;19.80;99.90;;;;;;5072307;28;20044;-66
2022/07/13 02:47:33;;;;;;;5.53;4.53;;;19.90;99.90;;;;;;5071889;28;20093;-66
2022/07/13 02:49:59;;;;;;;5.00;4.50;;;19.90;99.90;;;;;;5072178;28;20395;-66
2022/07/13 02:52:24;;;;;;;5.30;4.80;;;19.80;99.90;;;;;;5054547;28;20059;-66
2022/07/13 02:54:51;;;;;;;5.32;4.82;;;19.80;99.90;;;;;;5071166;28;20055;-66
2022/07/13 02:57:17;;;;;;;6.75;5.63;;;19.80;99.90;;;;;;5071920;28;20056;-67
2022/07/13 02:59:43;;;;;;;5.82;5.32;;;19.80;99.90;;;;;;5072259;28;20186;-66
2022/07/13 03:02:08;;;;;;;5.88;5.35;;;19.80;99.90;;;;;;5072205;28;20048;-66
2022/07/13 03:04:35;;;;;;;7.20;5.63;;;19.80;99.90;;;;;;5071387;28;20669;-66
2022/07/13 03:07:02;;;;;;;6.20;5.60;;;19.80;99.90;;;;;;5058700;28;20511;-66
2022/07/13 03:09:28;;;;;;;7.82;6.28;;;19.80;99.90;;;;;;5050757;28;20447;-67
2022/07/13 03:11:54;;;;;;;7.40;5.75;;;19.90;99.90;;;;;;5052134;28;20397;-65
2022/07/13 03:14:20;;;;;;;7.03;6.32;;;19.90;99.90;;;;;;5052186;28;20048;-66
2022/07/13 03:16:46;;;;;;;5.78;5.28;;;19.90;99.90;;;;;;5051429;28;20037;-66
2022/07/13 03:19:11;;;;;;;6.20;5.50;;;19.80;99.90;;;;;;5050927;28;20052;-66
2022/07/13 03:21:37;;;;;;;7.63;5.50;;;19.90;99.90;;;;;;5050360;28;20455;-66
2022/07/13 03:24:03;;;;;;;5.70;5.10;;;19.90;99.90;;;;;;5050898;28;20037;-67
2022/07/13 03:26:29;;;;;;;5.97;5.30;;;19.90;99.90;;;;;;5050986;28;20049;-66
2022/07/13 03:28:55;;;;;;;6.72;5.10;;;19.90;99.90;;;;;;5052092;28;20242;-66
2022/07/13 03:31:21;;;;;;;7.60;5.25;;;19.90;99.90;;;;;;5055056;28;20428;-66
2022/07/13 03:33:48;;;;;;;7.25;5.07;;;19.90;99.90;;;;;;5055524;28;20041;-66
2022/07/13 03:36:14;;;;;;;5.25;4.75;;;19.90;99.90;;;;;;5055942;28;20574;-66
2022/07/13 03:38:40;;;;;;;5.10;4.60;;;19.90;99.90;;;;;;5076109;28;20504;-66
2022/07/13 03:41:06;;;;;;;6.57;4.78;;;19.90;99.90;;;;;;5057876;28;20045;-66
2022/07/13 03:43:32;;;;;;;6.43;5.03;;;19.90;99.90;;;;;;5075863;28;20492;-66
2022/07/13 03:45:58;;;;;;;6.53;5.20;;;19.90;99.90;;;;;;5075249;28;20044;-66
2022/07/13 03:48:23;;;;;;;7.43;5.60;;;19.90;99.90;;;;;;5075212;28;20522;-67
2022/07/13 03:50:49;;;;;;;8.10;6.03;;;19.90;99.90;;;;;;5074830;28;20052;-66
2022/07/13 03:53:16;;;;;;;6.50;5.90;;;19.90;99.90;;;;;;5075553;28;20554;-66
2022/07/13 03:55:42;;;;;;;6.22;5.63;;;19.90;99.90;;;;;;5075239;28;20485;-66
2022/07/13 03:58:10;;;;;;;6.47;5.68;;;19.80;99.90;;;;;;5075247;28;20127;-66
2022/07/13 04:00:36;;;;;;;6.57;5.32;;;19.90;99.90;;;;;;5075358;28;20422;-66
2022/07/13 04:03:02;;;;;;;6.75;6.10;;;19.80;99.90;;;;;;5075295;28;20055;-66
2022/07/13 04:05:28;;;;;;;6.40;5.80;;;19.90;99.90;;;;;;5074704;28;20044;-66
2022/07/13 04:07:54;;;;;;;8.05;6.07;;;19.80;99.90;;;;;;5064020;28;20041;-66
2022/07/13 04:10:20;;;;;;;6.35;5.63;;;19.80;99.90;;;;;;5055403;28;20499;-66
2022/07/13 04:12:46;;;;;;;6.60;5.57;;;19.80;99.90;;;;;;5054828;28;20136;-66
2022/07/13 04:15:12;;;;;;;6.20;5.55;;;19.80;99.90;;;;;;5055099;28;20129;-66
2022/07/13 04:17:39;;;;;;;7.07;5.70;;;19.80;99.90;;;;;;5054581;28;20037;-67
2022/07/13 04:20:05;;;;;;;6.55;5.35;;;19.80;99.90;;;;;;5054195;28;20084;-66
2022/07/13 04:22:31;;;;;;;5.60;5.10;;;19.70;99.90;;;;;;5055042;28;20102;-65
2022/07/13 04:24:57;;;;;;;5.90;5.30;;;19.70;99.90;;;;;;5054752;28;20056;-66
2022/07/13 04:27:22;;;;;;;5.68;5.07;;;19.80;99.90;;;;;;5053740;28;20087;-65
2022/07/13 04:29:48;;;;;;;5.85;4.90;;;19.80;99.90;;;;;;5054067;28;20088;-66
2022/07/13 04:32:14;;;;;;;5.85;5.28;;;19.80;99.90;;;;;;5053911;28;20397;-66
2022/07/13 04:34:40;;;;;;;6.00;5.40;;;19.80;99.90;;;;;;5054552;28;20465;-66
2022/07/13 04:37:05;;;;;;;8.15;5.30;;;19.80;99.90;;;;;;5054359;28;20087;-66
2022/07/13 04:39:31;;;;;;;8.48;5.53;;;19.80;99.90;;;;;;5055013;28;20382;-66
2022/07/13 04:41:59;;;;;;;7.40;5.38;;;19.80;99.90;;;;;;5053585;28;20127;-66
2022/07/13 04:44:26;;;;;;;6.22;4.75;;;19.80;99.90;;;;;;5053411;28;20115;-66
2022/07/13 04:46:52;;;;;;;6.88;5.60;;;19.80;99.90;;;;;;5054457;28;20045;-66
2022/07/13 04:49:19;;;;;;;5.65;5.03;;;19.80;99.90;;;;;;5053129;28;20056;-66
2022/07/13 04:51:47;;;;;;;5.57;5.05;;;19.80;99.90;;;;;;5053737;28;20484;-65
2022/07/13 04:54:16;;;;;;;6.22;5.38;;;19.80;99.90;;;;;;5053072;28;20142;-66
2022/07/13 04:56:41;;;;;;;6.15;5.18;;;19.80;99.90;;;;;;5054315;28;20147;-66
2022/07/13 04:59:07;;;;;;;5.75;5.22;;;19.80;99.90;;;;;;5054298;28;20048;-66
2022/07/13 05:01:33;;;;;;;6.70;5.05;;;19.90;99.90;;;;;;5054174;28;20393;-66
2022/07/13 05:03:59;;;;;;;6.47;5.25;;;19.90;99.90;;;;;;5036874;28;20052;-66
2022/07/13 05:06:25;;;;;;;5.95;5.38;;;19.90;99.90;;;;;;5035710;28;20052;-66
2022/07/13 05:08:53;;;;;;;5.78;5.05;;;19.90;99.90;;;;;;5061652;28;20056;-67
2022/07/13 05:11:19;;;;;;;6.28;5.32;;;19.90;99.90;;;;;;5074113;28;20040;-66
2022/07/13 05:13:45;;;;;;;5.75;5.15;;;19.90;99.90;;;;;;5072678;28;20561;-66
2022/07/13 05:16:11;;;;;;;8.13;5.18;;;20.00;99.90;;;;;;5073708;28;20080;-66
2022/07/13 05:18:36;;;;;;;6.13;5.07;;;20.00;99.90;;;;;;5074035;28;20041;-66
2022/07/13 05:21:02;;;;;;;6.38;4.70;;;20.00;99.90;;;;;;5073842;28;20045;-66
2022/07/13 05:23:28;;;;;;;7.20;4.82;;;20.00;99.90;;;;;;5073905;28;20041;-66
2022/07/13 05:25:54;;;;;;;6.07;4.65;;;20.10;99.90;;;;;;5073386;28;20171;-66
2022/07/13 05:28:19;;;;;;;7.45;5.65;;;20.10;99.90;;;;;;5072582;28;20059;-67
2022/07/13 05:30:45;;;;;;;6.35;5.70;;;20.10;99.90;;;;;;5073403;28;20044;-66
2022/07/13 05:33:11;;;;;;;8.88;5.20;;;20.10;99.90;;;;;;5073656;28;20087;-66
2022/07/13 05:35:36;;;;;;;6.65;5.13;;;20.10;99.90;;;;;;5055287;28;20297;-66
2022/07/13 05:38:02;;;;;;;5.30;4.80;;;20.10;99.90;;;;;;5073272;28;20044;-66
2022/07/13 05:40:28;;;;;;;5.35;4.85;;;20.10;99.90;;;;;;5071473;28;20527;-66
2022/07/13 05:42:54;;;;;;;6.53;4.68;;;20.10;99.90;;;;;;5072293;28;20097;-66
2022/07/13 05:45:19;;;;;;;5.38;4.68;;;20.10;99.90;;;;;;5072795;28;20059;-66
2022/07/13 05:47:46;;;;;;;4.97;4.45;;;20.10;99.90;;;;;;5073561;28;20445;-66
2022/07/13 05:50:13;;;;;;;5.65;4.35;;;20.10;99.90;;;;;;5073200;28;20445;-66
2022/07/13 05:52:39;;;;;;;5.95;4.70;;;20.10;99.90;;;;;;5072261;28;20409;-66
2022/07/13 05:55:05;;;;;;;5.75;4.22;;;20.10;99.90;;;;;;5073327;28;20052;-66
2022/07/13 05:57:33;;;;;;;5.18;4.57;;;20.10;99.90;;;;;;5072606;28;20075;-66
2022/07/13 05:59:59;;;;;;;7.50;4.43;;;20.20;99.90;;;;;;5073125;28;20053;-66
2022/07/13 06:02:25;;;;;;;6.80;5.00;;;20.20;99.90;;;;;;5072260;28;20519;-66
2022/07/13 06:04:50;;;;;;;5.47;4.97;;;20.20;99.90;;;;;;5072544;28;20055;-66
2022/07/13 06:07:16;;;;;;;7.55;5.35;;;20.20;99.90;;;;;;5072801;28;20128;-67
2022/07/13 06:09:42;;;;;;;5.38;4.60;;;20.20;99.90;;;;;;5063746;28;20049;-66
2022/07/13 06:12:07;;;;;;;5.18;4.57;;;20.20;99.90;;;;;;5051756;28;20041;-65
2022/07/13 06:14:33;;;;;;;5.20;4.63;;;20.20;99.90;;;;;;5051602;28;20067;-66
2022/07/13 06:16:59;;;;;;;4.78;4.15;;;20.20;99.90;;;;;;5052459;28;20040;-66
2022/07/13 06:19:25;;;;;;;5.45;4.43;;;20.20;99.90;;;;;;5052744;28;20084;-66
2022/07/13 06:21:51;;;;;;;6.45;4.38;;;20.30;99.90;;;;;;5052747;28;20481;-66
2022/07/13 06:24:16;;;;;;;6.28;4.85;;;20.30;99.90;;;;;;5052898;28;20485;-66
2022/07/13 06:26:42;;;;;;;4.70;4.30;;;20.30;99.90;;;;;;5052265;28;20467;-66
2022/07/13 06:29:08;;;;;;;7.43;4.38;;;20.30;99.90;;;;;;5051681;28;20067;-67
2022/07/13 06:31:33;;;;;;;5.82;4.18;;;20.30;99.90;;;;;;5051380;28;20434;-66
2022/07/13 06:33:59;;;;;;;4.65;3.83;;;20.30;99.90;;;;;;5051343;28;20083;-66
2022/07/13 06:36:25;;;;;;;4.95;3.80;;;20.40;99.90;;;;;;5050925;28;20085;-66
2022/07/13 06:38:51;;;;;;;4.60;4.20;;;20.40;99.90;;;;;;5052258;28;20053;-66
2022/07/13 06:41:17;;;;;;;5.50;4.15;;;20.40;99.90;;;;;;5052060;28;20485;-66
2022/07/13 06:43:43;;;;;;;5.30;4.43;;;20.40;99.90;;;;;;5051973;28;20049;-66
2022/07/13 06:46:09;;;;;;;5.00;4.45;;;20.40;99.90;;;;;;5052091;28;20094;-66
2022/07/13 06:48:35;;;;;;;4.40;4.00;;;20.40;99.90;;;;;;5035137;28;20059;-67
2022/07/13 06:51:01;;;;;;;4.50;3.95;;;20.50;99.90;;;;;;5052317;28;20041;-66
2022/07/13 06:53:27;;;;;;;4.88;4.18;;;20.50;99.90;;;;;;5052024;28;20508;-66
2022/07/13 06:55:54;;;;;;;5.53;4.55;;;20.60;99.90;;;;;;5051750;28;20405;-66
2022/07/13 06:58:21;;;;;;;5.75;5.15;;;20.60;99.90;;;;;;5051753;28;20213;-66
2022/07/13 07:00:47;;;;;;;5.63;4.68;;;20.70;99.90;;;;;;5051835;28;20416;-67
2022/07/13 07:03:13;;;;;;;6.90;4.82;;;20.70;99.90;;;;;;5065452;28;20169;-66
2022/07/13 07:05:39;;;;;;;5.95;4.78;;;20.80;99.90;;;;;;5053954;28;20502;-67
2022/07/13 07:08:05;;;;;;;5.65;5.13;;;20.80;99.90;;;;;;5050968;28;20044;-66
2022/07/13 07:10:30;;;;;;;8.68;4.85;;;20.80;99.90;;;;;;5051715;28;20128;-66
2022/07/13 07:12:56;;;;;;;7.00;5.03;;;20.90;99.90;;;;;;5050787;28;20132;-66
2022/07/13 07:15:23;;;;;;;5.78;5.05;;;21.00;99.90;;;;;;5051689;28;20096;-66
2022/07/13 07:17:49;;;;;;;6.05;5.22;;;21.00;99.90;;;;;;5050660;28;20561;-68
2022/07/13 07:20:16;;;;;;;8.40;6.05;;;21.10;99.90;;;;;;5051214;28;20495;-66
2022/07/13 07:22:43;;;;;;;6.68;5.10;;;21.10;99.90;;;;;;5051818;28;20079;-66
2022/07/13 07:25:09;;;;;;;8.13;5.93;;;21.10;99.90;;;;;;5051973;28;20064;-67
2022/07/13 07:27:35;;;;;;;6.90;6.22;;;21.20;99.90;;;;;;5051341;28;20134;-66
2022/07/13 07:30:01;;;;;;;6.35;5.18;;;21.20;99.90;;;;;;5051407;28;20056;-67
2022/07/13 07:32:27;;;;;;;6.60;5.72;;;21.30;99.90;;;;;;5052169;28;20045;-66
2022/07/13 07:34:52;;;;;;;6.00;5.40;;;21.30;99.90;;;;;;5051257;28;20047;-66
2022/07/13 07:37:22;;;;;;;7.05;5.40;;;21.40;99.90;;;;;;5050470;28;20049;-66
2022/07/13 07:39:51;;;;;;;6.65;6.00;;;21.40;99.90;;;;;;5051635;28;20401;-66
2022/07/13 07:42:19;;;;;;;8.77;5.90;;;21.50;99.90;;;;;;5052179;28;20060;-67
2022/07/13 07:44:45;;;;;;;6.80;5.85;;;21.40;99.90;;;;;;5071020;28;20476;-65
2022/07/13 07:47:11;;;;;;;9.15;6.43;;;21.50;99.90;;;;;;5070276;28;20047;-66
2022/07/13 07:49:37;;;;;;;10.23;6.90;;;21.50;99.90;;;;;;5070490;28;20132;-66
2022/07/13 07:52:02;;;;;;;9.48;6.47;;;21.60;99.90;;;;;;5071593;28;20049;-66
2022/07/13 07:54:28;;;;;;;8.70;6.22;;;21.60;99.90;;;;;;5071269;28;20044;-66
2022/07/13 07:56:54;;;;;;;9.20;7.57;;;21.70;99.90;;;;;;5070258;28;20053;-65
2022/07/13 07:59:19;;;;;;;9.65;7.55;;;21.70;99.90;;;;;;5070417;28;20063;-67
2022/07/13 08:01:45;;;;;;;7.18;6.47;;;21.80;99.90;;;;;;5071627;28;20045;-68
2022/07/13 08:04:11;;;;;;;9.60;6.32;;;21.80;99.90;;;;;;5069928;28;20040;-69
2022/07/13 08:06:38;;;;;;;8.43;7.13;;;21.80;99.90;;;;;;5069286;28;20480;-69
2022/07/13 08:09:04;;;;;;;7.30;6.13;;;21.90;99.90;;;;;;5071135;28;20144;-68
2022/07/13 08:11:30;;;;;;;8.13;6.43;;;21.90;99.90;;;;;;5053486;28;20480;-68
2022/07/13 08:13:56;;;;;;;9.20;6.57;;;22.10;99.90;;;;;;5071168;28;20056;-69
2022/07/13 08:16:22;;;;;;;7.97;6.30;;;22.10;99.90;;;;;;5072286;28;20040;-68
2022/07/13 08:18:49;;;;;;;9.85;6.45;;;22.20;99.90;;;;;;5074375;28;20082;-68
2022/07/13 08:21:15;;;;;;;6.32;5.57;;;22.20;99.90;;;;;;5074672;28;20382;-67
2022/07/13 08:23:52;;;;;;;7.30;5.82;;;22.30;99.90;;;;;;5056548;28;20048;-68
2022/07/13 08:26:27;;;;;;;7.07;5.63;;;22.30;99.90;;;;;;5073476;28;20044;-68
2022/07/13 08:28:54;;;;;;;7.70;5.57;;;22.40;99.90;;;;;;5071923;28;20060;-68
2022/07/13 08:31:21;;;;;;;9.07;5.80;;;22.40;99.90;;;;;;5074336;28;20058;-67
2022/07/13 08:39:17;;;;;;;7.22;5.65;;;22.50;99.90;;;;;;5072843;28;20040;-67
2022/07/13 08:41:43;;;;;;;7.70;4.88;;;22.60;99.90;;;;;;5075066;28;20056;-66
2022/07/13 08:44:09;;;;;;;5.80;4.72;;;22.60;99.90;;;;;;5071399;28;20072;-66
2022/07/13 08:46:35;;;;;;;7.05;5.35;;;22.70;99.90;;;;;;5075045;28;20068;-68
2022/07/13 08:49:02;;;;;;;9.50;5.20;;;22.80;99.90;;;;;;5075149;28;20050;-68
2022/07/13 08:51:31;;;;;;;7.22;5.28;;;22.80;99.90;;;;;;5075372;28;20079;-68
2022/07/13 08:53:57;;;;;;;7.47;5.57;;;22.90;99.90;;;;;;5070403;28;20103;-67
2022/07/13 08:56:23;;;;;;;7.80;5.40;;;22.90;99.90;;;;;;5071015;28;20131;-67
2022/07/13 08:58:49;;;;;;;7.22;4.43;;;22.90;99.90;;;;;;5068179;28;20118;-67
2022/07/13 09:01:15;;;;;;;7.43;5.05;;;23.00;99.90;;;;;;5068577;28;20048;-70
2022/07/13 09:03:42;;;;;;;6.45;5.40;;;23.00;99.90;;;;;;5066853;28;20049;-67
2022/07/13 09:06:08;;;;;;;5.63;4.32;;;23.10;99.90;;;;;;5069989;28;20527;-67
2022/07/13 09:08:43;;;;;;;4.78;3.55;;;23.10;99.90;;;;;;5071642;28;20049;-67
2022/07/13 09:11:09;;;;;;;4.70;3.17;;;23.20;99.90;;;;;;5068996;28;20135;-68
2022/07/13 09:13:41;;;;;;;6.82;4.50;;;23.30;99.90;;;;;;5070979;28;20625;-67
2022/07/13 09:16:16;;;;;;;6.93;3.38;;;23.30;99.90;;;;;;5069487;28;20045;-67
2022/07/13 09:19:01;;;;;;;4.32;2.53;;;23.40;99.90;;;;;;5068806;28;20048;-66
2022/07/13 09:21:30;;;;;;;7.55;3.72;;;23.40;99.90;;;;;;5067980;28;20499;-71
2022/07/13 09:23:57;;;;;;;5.25;3.10;;;23.50;99.90;;;;;;5069770;28;20044;-67
2022/07/13 09:26:38;;;;;;;7.22;3.85;;;23.50;99.90;;;;;;5069660;28;20106;-68
2022/07/13 09:29:05;;;;;;;3.88;3.15;;;23.50;99.90;;;;;;5068520;28;20044;-71
2022/07/13 09:31:31;;;;;;;4.07;3.03;;;23.60;99.90;;;;;;5069249;28;20040;-68
2022/07/13 09:33:57;;;;;;;8.55;4.63;;;23.60;99.90;;;;;;5069320;28;20063;-68
2022/07/13 09:36:24;;;;;;;8.65;4.30;;;23.60;99.90;;;;;;5067655;28;20044;-68
2022/07/13 09:38:53;;;;;;;4.55;3.03;;;23.60;99.90;;;;;;5069496;28;20052;-68
2022/07/13 09:41:24;;;;;;;3.83;2.47;;;23.70;99.90;;;;;;5069594;28;21107;-69
2022/07/13 09:46:55;;;;;;;5.40;3.35;;;23.70;99.90;;;;;;5069358;28;20067;-69
2022/07/13 09:49:44;;;;;;;2.72;2.00;;;23.80;99.90;;;;;;5068808;28;20485;-69
2022/07/13 09:52:17;;;;;;;3.80;2.30;;;23.90;99.90;;;;;;5068575;28;20051;-70
2022/07/13 09:54:44;;;;;;;3.65;3.33;;;23.90;99.90;;;;;;5067488;28;20131;-69
2022/07/13 09:57:14;;;;;;;5.75;3.22;;;24.00;99.90;;;;;;5067768;28;20051;-68
2022/07/13 09:59:42;;;;;;;3.65;2.20;;;24.00;99.90;;;;;;5068454;28;20057;-68
2022/07/13 10:02:09;;;;;;;2.72;1.52;;;24.00;99.90;;;;;;5069395;28;20047;-71
2022/07/13 10:04:37;;;;;;;3.30;2.28;;;24.10;99.90;;;;;;5068476;28;20117;-71
2022/07/13 10:07:08;;;;;;;4.07;2.00;;;24.10;99.90;;;;;;5049445;28;20052;-69
2022/07/13 10:09:37;;;;;;;2.50;1.33;;;24.20;99.90;;;;;;5068418;28;20527;-68
2022/07/13 10:12:09;;;;;;;1.52;1.13;;;24.20;99.90;;;;;;5067772;28;20157;-68
2022/07/13 10:14:36;;;;;;;1.67;1.40;;;24.30;99.90;;;;;;5066182;28;20033;-69
2022/07/13 10:17:22;;;;;;;3.28;1.10;;;24.30;99.90;;;;;;5066974;28;20101;-68
2022/07/13 10:19:57;;;;;;;3.47;1.10;;;24.30;99.90;;;;;;5067198;28;20053;-69
2022/07/13 10:22:35;;;;;;;2.83;1.70;;;24.40;99.90;;;;;;5068033;28;20044;-70
2022/07/13 10:25:01;;;;;;;1.83;1.20;;;24.40;99.90;;;;;;5069073;28;20514;-73
2022/07/13 10:27:35;;;;;;;1.52;1.27;;;24.40;99.90;;;;;;5067957;28;20361;-70
2022/07/13 10:30:07;;;;;;;2.65;1.55;;;24.40;99.90;;;;;;5068371;28;20062;-70
2022/07/13 10:32:34;;;;;;;;;;;24.40;99.90;;;;;;5067605;28;20080;-69
2022/07/13 10:35:09;;;;;;;3.25;1.20;;;24.40;99.90;;;;;;5067722;28;19928;-70
2022/07/13 10:37:57;;;;;;;3.03;1.38;;;24.40;99.90;;;;;;5068772;28;20032;-73
2022/07/13 10:40:33;;;;;;;2.08;1.15;;;24.40;99.90;;;;;;5066259;28;20047;-70
2022/07/13 10:43:03;;;;;;;2.60;1.10;;;24.50;99.90;;;;;;5067947;28;20060;-74
2022/07/13 10:45:38;;;;;;;1.85;0.93;;;24.60;99.90;;;;;;5065166;28;20115;-71
2022/07/13 10:48:34;;;;;;;2.15;1.17;;;24.60;99.90;;;;;;5068843;28;20056;-70
2022/07/13 10:51:02;;;;;;;1.25;1.15;;;24.60;99.90;;;;;;5067071;28;20086;-69
2022/07/13 10:53:46;;;;;;;3.83;1.65;;;24.60;99.90;;;;;;5068282;28;20083;-70
2022/07/13 10:56:20;;;;;;;2.45;1.10;;;24.70;99.90;;;;;;5065394;28;20061;-70
2022/07/13 10:58:50;;;;;;;1.45;1.00;;;24.50;99.90;;;;;;5068949;28;20040;-69
2022/07/13 11:01:42;;;;;;;1.10;1.00;;;24.70;99.90;;;;;;5067801;28;20060;-69
2022/07/13 11:04:14;;;;;;;1.10;0.82;;;24.80;99.90;;;;;;5068258;28;20158;-71
2022/07/13 11:06:40;;;;;;;3.35;1.00;;;24.80;99.90;;;;;;5066631;28;20158;-70
2022/07/13 11:09:20;;;;;;;2.67;0.90;;;24.80;99.90;;;;;;5066181;28;20123;-69
2022/07/13 11:11:53;;;;;;;1.55;1.00;;;24.80;99.90;;;;;;5068153;28;20052;-69
2022/07/13 11:14:40;;;;;;;1.42;1.00;;;24.80;99.90;;;;;;5066267;28;20541;-68
2022/07/13 11:17:16;;;;;;;3.30;0.90;;;24.80;99.90;;;;;;5066048;28;20106;-68
2022/07/13 11:19:59;;;;;;;1.88;0.90;;;24.90;99.90;;;;;;5066395;28;20044;-69
2022/07/13 11:25:15;;;;;;;3.30;1.10;;;24.90;99.90;;;;;;5053085;28;20067;-69
2022/07/13 11:28:06;;;;;;;2.45;0.90;;;25.00;99.90;;;;;;5064532;28;20410;-69
2022/07/13 11:30:35;;;;;;;1.85;0.80;;;25.00;99.90;;;;;;5025476;28;20175;-66
2022/07/13 11:33:01;;;;;;;2.00;0.93;;;25.10;99.90;;;;;;5065003;28;20127;-67
2022/07/13 11:35:27;;;;;;;1.10;1.00;;;25.00;99.90;;;;;;5066250;28;20072;-66
2022/07/13 11:37:53;;;;;;;1.73;1.13;;;25.10;99.90;;;;;;5067452;28;20440;-67
2022/07/13 11:40:45;;;;;;;3.13;0.95;;;25.10;99.90;;;;;;5067043;28;20044;-66
2022/07/13 11:43:12;;;;;;;1.00;0.90;;;25.10;99.90;;;;;;5062955;28;20060;-69
2022/07/13 11:45:39;;;;;;;1.02;0.93;;;25.10;99.90;;;;;;5067073;28;20048;-69
2022/07/13 11:48:06;;;;;;;1.77;1.00;;;25.10;99.90;;;;;;5066503;28;20456;-67
2022/07/13 11:51:05;;;;;;;2.22;1.00;;;25.00;99.90;;;;;;5070266;28;20086;-68
2022/07/13 11:53:31;;;;;;;1.55;1.00;;;25.00;99.90;;;;;;5059076;28;20114;-66
2022/07/13 11:56:02;;;;;;;2.97;1.20;;;25.10;99.90;;;;;;5069526;28;20481;-68
2022/07/13 11:58:33;;;;;;;1.55;1.08;;;25.00;99.70;;;;;;5070494;28;20071;-66
2022/07/13 12:01:11;;;;;;;1.45;1.10;;;25.00;99.70;;;;;;5071195;28;20055;-66
2022/07/13 12:03:37;;;;;;;1.20;0.82;;;24.90;99.50;;;;;;5071558;28;20123;-66
2022/07/13 12:06:04;;;;;;;1.88;1.02;;;25.00;99.60;;;;;;5070848;28;20052;-68
2022/07/13 12:08:35;;;;;;;2.63;1.05;;;25.00;99.60;;;;;;5071216;28;20080;-67
2022/07/13 12:11:03;;;;;;;2.42;1.10;;;25.10;99.40;;;;;;5072562;28;20458;-67
2022/07/13 12:13:32;;;;;;;2.13;1.17;;;25.10;99.90;;;;;;5072584;28;20048;-67
2022/07/13 12:15:57;;;;;;;3.90;1.10;;;25.10;99.90;;;;;;5072465;28;20045;-67
2022/07/13 12:18:23;;;;;;;2.25;1.00;;;25.10;99.90;;;;;;5072243;28;20055;-68
2022/07/13 12:20:49;;;;;;;1.45;0.85;;;25.10;99.90;;;;;;5072258;28;20040;-67
2022/07/13 12:23:15;;;;;;;1.40;1.00;;;25.10;99.90;;;;;;5071147;28;20082;-66
2022/07/13 12:25:41;;;;;;;1.92;1.20;;;25.00;99.90;;;;;;5071558;28;20080;-68
2022/07/13 12:28:09;;;;;;;2.80;1.40;;;25.00;99.90;;;;;;5072321;28;20551;-67
2022/07/13 12:30:37;;;;;;;5.78;1.45;;;24.90;99.90;;;;;;5072158;28;20123;-67
2022/07/13 12:33:04;;;;;;;3.08;1.73;;;24.80;99.90;;;;;;5072397;28;20044;-67
2022/07/13 12:35:36;;;;;;;4.20;1.48;;;24.80;99.90;;;;;;5070712;28;20048;-67
2022/07/13 12:38:04;;;;;;;3.63;1.20;;;24.70;99.90;;;;;;5070446;28;20560;-66
2022/07/13 12:40:40;;;;;;;1.75;1.20;;;24.70;99.90;;;;;;5071790;28;20128;-66
2022/07/13 12:43:19;;;;;;;4.38;1.77;;;24.70;99.90;;;;;;5069188;28;20036;-66
2022/07/13 12:45:55;;;;;;;2.10;1.50;;;24.60;99.90;;;;;;5071898;28;20059;-66
2022/07/13 12:48:26;;;;;;;3.53;1.10;;;24.50;99.90;;;;;;5071742;28;20044;-66
2022/07/13 12:51:02;;;;;;;3.50;1.30;;;24.50;99.90;;;;;;5071153;28;20767;-66
2022/07/13 12:53:48;;;;;;;3.15;1.15;;;24.50;99.90;;;;;;5068453;28;20044;-65
2022/07/13 12:56:15;;;;;;;3.00;1.42;;;24.50;99.90;;;;;;5069929;28;20166;-66
2022/07/13 12:58:47;;;;;;;2.28;1.20;;;24.40;99.90;;;;;;5071438;28;20052;-66
2022/07/13 13:01:30;;;;;;;3.75;1.50;;;24.40;99.90;;;;;;5070928;28;20115;-66
2022/07/13 13:04:03;;;;;;;3.30;1.00;;;24.40;99.90;;;;;;5069769;28;20067;-66